Time;durP1;ratioP1;P1;durP2;ratioP2;P2;SDS_P1;SDS_P2;PMS_P1;PMS_P2;Temp;Humidity;BMP_temperature;BMP_pressure;BME280_temperature;BME280_humidity;BME280_pressure;Samples;Min_cycle;Max_cycle;Signal;HPM_P1;HPM_P2
2021/03/01 00:01:38;;;;;;;17.27;9.88;;;;;;;;;;5033306;28;20030;-83
2021/03/01 00:04:23;;;;;;;15.77;9.52;;;;;;;;;;5028962;28;20435;-83
2021/03/01 00:07:09;;;;;;;17.25;9.82;;;;;;;;;;5030214;28;20373;-83
2021/03/01 00:09:54;;;;;;;17.75;9.90;;;;;;;;;;5011980;28;20453;-82
2021/03/01 00:12:40;;;;;;;15.52;9.07;;;;;;;;;;5014469;28;20033;-81
2021/03/01 00:15:26;;;;;;;17.13;10.02;;;;;;;;;;5029151;28;20368;-82
2021/03/01 00:18:12;;;;;;;15.48;9.02;;;;;;;;;;5032529;28;20464;-83
2021/03/01 00:20:57;;;;;;;16.90;9.13;;;;;;;;;;5025024;28;20036;-83
2021/03/01 00:23:42;;;;;;;17.10;9.95;;;;;;;;;;5023761;28;20099;-84
2021/03/01 00:26:28;;;;;;;17.20;9.73;;;;;;;;;;5026860;28;20022;-82
2021/03/01 00:29:13;;;;;;;16.50;9.50;;;;;;;;;;5026525;28;20050;-84
2021/03/01 00:31:58;;;;;;;16.63;9.38;;;;;;;;;;5028761;28;20108;-82
2021/03/01 00:34:43;;;;;;;17.55;11.07;;;;;;;;;;5025491;28;20056;-82
2021/03/01 00:37:29;;;;;;;18.95;9.90;;;;;;;;;;5030738;28;20017;-83
2021/03/01 00:40:14;;;;;;;20.10;10.07;;;;;;;;;;5026917;28;20128;-83
2021/03/01 00:42:59;;;;;;;18.30;10.63;;;;;;;;;;5025841;28;20530;-82
2021/03/01 00:45:45;;;;;;;19.67;10.20;;;;;;;;;;5026288;28;20140;-83
2021/03/01 00:48:30;;;;;;;20.38;11.07;;;;;;;;;;5025941;28;20441;-82
2021/03/01 00:51:15;;;;;;;16.23;9.05;;;;;;;;;;5026759;28;20022;-82
2021/03/01 00:54:00;;;;;;;15.93;9.27;;;;;;;;;;5026111;28;20021;-83
2021/03/01 00:56:45;;;;;;;17.88;10.07;;;;;;;;;;5024175;28;20141;-82
2021/03/01 00:59:31;;;;;;;19.08;9.93;;;;;;;;;;5022153;28;20032;-83
2021/03/01 01:02:16;;;;;;;16.60;9.57;;;;;;;;;;5024746;28;20029;-82
2021/03/01 01:05:01;;;;;;;18.10;9.75;;;;;;;;;;5027592;28;21904;-83
2021/03/01 01:07:47;;;;;;;18.90;9.75;;;;;;;;;;5027061;28;20022;-83
2021/03/01 01:10:33;;;;;;;18.55;10.15;;;;;;;;;;5024418;28;20029;-84
2021/03/01 01:13:18;;;;;;;19.25;10.77;;;;;;;;;;5022910;28;20149;-83
2021/03/01 01:16:03;;;;;;;16.92;9.45;;;;;;;;;;5030255;28;20048;-84
2021/03/01 01:18:48;;;;;;;17.35;9.20;;;;;;;;;;5029727;28;20028;-83
2021/03/01 01:21:34;;;;;;;18.58;10.93;;;;;;;;;;5027048;28;20047;-85
2021/03/01 01:24:19;;;;;;;17.33;10.88;;;;;;;;;;5023383;28;20052;-83
2021/03/01 01:27:05;;;;;;;16.65;9.25;;;;;;;;;;5030387;28;20029;-83
2021/03/01 01:29:50;;;;;;;18.02;8.55;;;;;;;;;;5024521;28;20510;-83
2021/03/01 01:32:36;;;;;;;17.10;9.32;;;;;;;;;;5011267;28;20032;-82
2021/03/01 01:35:22;;;;;;;16.45;9.52;;;;;;;;;;5024059;28;20159;-81
2021/03/01 01:38:07;;;;;;;17.85;9.70;;;;;;;;;;5027092;28;21447;-82
2021/03/01 01:40:52;;;;;;;17.60;9.02;;;;;;;;;;5028363;28;20459;-82
2021/03/01 01:43:38;;;;;;;16.15;10.40;;;;;;;;;;5026295;28;20068;-83
2021/03/01 01:46:23;;;;;;;17.30;9.38;;;;;;;;;;5026596;28;21419;-83
2021/03/01 01:49:08;;;;;;;16.63;8.77;;;;;;;;;;5025417;28;20029;-84
2021/03/01 01:51:53;;;;;;;16.60;9.20;;;;;;;;;;5025999;28;20025;-82
2021/03/01 01:54:39;;;;;;;18.38;9.77;;;;;;;;;;5022340;28;20036;-83
2021/03/01 01:57:24;;;;;;;14.35;9.23;;;;;;;;;;5020284;28;20072;-82
2021/03/01 02:00:19;;;;;;;16.08;9.00;;;;;;;;;;5026815;28;20707;-82
2021/03/01 02:03:18;;;;;;;20.17;10.40;;;;;;;;;;5022581;28;20034;-84
2021/03/01 02:06:27;;;;;;;15.27;9.30;;;;;;;;;;5041516;28;20491;-83
2021/03/01 02:09:17;;;;;;;17.08;10.18;;;;;;;;;;5017215;28;20037;-83
2021/03/01 02:12:02;;;;;;;17.70;10.18;;;;;;;;;;5023554;28;20050;-83
2021/03/01 02:14:54;;;;;;;17.73;8.93;;;;;;;;;;5024311;28;20083;-83
2021/03/01 02:17:39;;;;;;;15.38;9.48;;;;;;;;;;5026879;28;20025;-83
2021/03/01 02:20:24;;;;;;;15.25;8.55;;;;;;;;;;5025595;28;20030;-84
2021/03/01 02:23:10;;;;;;;16.77;8.82;;;;;;;;;;5026305;28;20041;-84
2021/03/01 02:25:56;;;;;;;20.00;9.60;;;;;;;;;;5020179;28;20088;-83
2021/03/01 02:28:43;;;;;;;15.93;9.88;;;;;;;;;;5023564;28;20080;-83
2021/03/01 02:31:30;;;;;;;18.33;9.93;;;;;;;;;;5026701;28;20014;-84
2021/03/01 02:34:17;;;;;;;17.27;9.38;;;;;;;;;;5023582;28;20022;-83
2021/03/01 02:37:07;;;;;;;16.15;9.20;;;;;;;;;;5029757;28;20025;-84
2021/03/01 02:39:53;;;;;;;14.77;9.30;;;;;;;;;;5021667;28;20053;-84
2021/03/01 02:42:39;;;;;;;15.32;8.43;;;;;;;;;;5023467;28;20036;-85
2021/03/01 02:45:26;;;;;;;17.10;10.00;;;;;;;;;;5031465;28;20056;-83
2021/03/01 02:48:11;;;;;;;16.45;10.45;;;;;;;;;;5026824;28;20021;-84
2021/03/01 02:50:57;;;;;;;19.35;10.30;;;;;;;;;;5024555;28;20028;-84
2021/03/01 02:53:43;;;;;;;18.13;10.35;;;;;;;;;;5020674;28;20025;-83
2021/03/01 02:56:28;;;;;;;17.30;9.82;;;;;;;;;;5024174;28;20021;-84
2021/03/01 02:59:14;;;;;;;17.42;9.98;;;;;;;;;;5026498;28;20845;-84
2021/03/01 03:01:59;;;;;;;18.25;10.45;;;;;;;;;;5019291;28;20041;-83
2021/03/01 03:04:46;;;;;;;17.10;9.07;;;;;;;;;;5020431;28;20033;-83
2021/03/01 03:07:31;;;;;;;16.73;10.23;;;;;;;;;;5026202;28;20125;-83
2021/03/01 03:10:17;;;;;;;17.48;10.00;;;;;;;;;;5023928;28;20592;-84
2021/03/01 03:13:03;;;;;;;18.52;9.50;;;;;;;;;;5020232;28;20022;-84
2021/03/01 03:15:53;;;;;;;18.60;9.55;;;;;;;;;;5026263;28;20376;-83
2021/03/01 03:18:39;;;;;;;19.33;9.77;;;;;;;;;;5027969;28;20029;-84
2021/03/01 03:21:24;;;;;;;16.98;9.50;;;;;;;;;;5020673;28;20061;-83
2021/03/01 03:24:09;;;;;;;16.85;9.45;;;;;;;;;;5027911;28;20033;-83
2021/03/01 03:26:55;;;;;;;18.15;10.00;;;;;;;;;;5024898;28;20112;-84
2021/03/01 03:29:40;;;;;;;19.85;10.43;;;;;;;;;;5027069;28;20025;-83
2021/03/01 03:32:26;;;;;;;15.52;8.55;;;;;;;;;;5020050;28;20080;-83
2021/03/01 03:35:11;;;;;;;17.40;9.45;;;;;;;;;;5021464;28;20026;-84
2021/03/01 03:38:01;;;;;;;16.38;9.68;;;;;;;;;;5027522;28;20044;-85
2021/03/01 03:40:48;;;;;;;16.60;10.10;;;;;;;;;;5031664;28;20462;-83
2021/03/01 03:43:33;;;;;;;19.85;10.55;;;;;;;;;;5022945;28;20579;-84
2021/03/01 03:46:19;;;;;;;17.52;10.27;;;;;;;;;;5021608;28;20022;-83
2021/03/01 03:49:06;;;;;;;21.23;10.88;;;;;;;;;;5023928;28;20018;-84
2021/03/01 03:51:53;;;;;;;15.27;8.88;;;;;;;;;;5025285;28;20029;-83
2021/03/01 03:54:39;;;;;;;17.23;9.75;;;;;;;;;;5026503;28;20410;-83
2021/03/01 03:57:27;;;;;;;16.77;10.00;;;;;;;;;;5030233;28;20018;-85
2021/03/01 04:00:13;;;;;;;14.88;9.00;;;;;;;;;;5027544;28;20033;-83
2021/03/01 04:03:01;;;;;;;18.00;9.15;;;;;;;;;;5025459;28;20043;-84
2021/03/01 04:05:46;;;;;;;17.42;9.95;;;;;;;;;;5025193;28;20034;-83
2021/03/01 04:08:32;;;;;;;19.17;10.45;;;;;;;;;;5026615;28;20040;-84
2021/03/01 04:11:19;;;;;;;16.35;10.13;;;;;;;;;;5027981;28;20087;-84
2021/03/01 04:14:06;;;;;;;15.20;8.52;;;;;;;;;;5027254;28;20117;-84
2021/03/01 04:16:54;;;;;;;19.23;9.98;;;;;;;;;;5027023;28;20017;-87
2021/03/01 04:19:40;;;;;;;16.35;10.35;;;;;;;;;;5027124;28;20052;-85
2021/03/01 04:22:26;;;;;;;17.67;9.77;;;;;;;;;;5014446;28;20022;-82
2021/03/01 04:25:12;;;;;;;20.52;9.50;;;;;;;;;;5027735;28;20531;-84
2021/03/01 04:27:58;;;;;;;16.08;9.63;;;;;;;;;;5028652;28;20419;-83
2021/03/01 04:30:44;;;;;;;18.73;9.63;;;;;;;;;;5024682;28;20026;-84
2021/03/01 04:33:30;;;;;;;15.60;8.98;;;;;;;;;;5027775;28;20029;-82
2021/03/01 04:36:16;;;;;;;18.60;10.85;;;;;;;;;;5025865;28;20033;-87
2021/03/01 04:39:02;;;;;;;19.05;10.68;;;;;;;;;;5025603;28;20052;-85
2021/03/01 04:41:48;;;;;;;18.00;10.75;;;;;;;;;;5030224;28;20037;-84
2021/03/01 04:44:33;;;;;;;16.85;9.52;;;;;;;;;;5025193;28;20064;-84
2021/03/01 04:47:19;;;;;;;17.35;10.15;;;;;;;;;;5028568;28;20036;-84
2021/03/01 04:50:05;;;;;;;17.52;9.75;;;;;;;;;;5022663;28;20144;-84
2021/03/01 04:52:50;;;;;;;16.35;9.25;;;;;;;;;;5029349;28;20175;-83
2021/03/01 04:55:36;;;;;;;16.95;9.02;;;;;;;;;;5023645;28;20132;-83
2021/03/01 04:58:21;;;;;;;18.85;10.35;;;;;;;;;;5030048;28;20044;-84
2021/03/01 05:01:08;;;;;;;15.27;9.60;;;;;;;;;;5013705;28;20124;-85
2021/03/01 05:03:53;;;;;;;17.00;8.85;;;;;;;;;;5021781;28;20104;-85
2021/03/01 05:06:40;;;;;;;19.42;9.70;;;;;;;;;;5022565;28;20112;-84
2021/03/01 05:09:25;;;;;;;16.55;9.40;;;;;;;;;;5028007;28;20021;-84
2021/03/01 05:12:10;;;;;;;16.63;9.15;;;;;;;;;;5022154;28;20021;-84
2021/03/01 05:14:55;;;;;;;21.75;9.85;;;;;;;;;;5028365;28;20017;-83
2021/03/01 05:17:41;;;;;;;18.05;10.75;;;;;;;;;;5024804;28;20365;-84
2021/03/01 05:20:26;;;;;;;14.52;8.85;;;;;;;;;;5020982;28;20436;-84
2021/03/01 05:23:11;;;;;;;19.55;9.38;;;;;;;;;;5024176;28;20169;-85
2021/03/01 05:25:56;;;;;;;19.13;10.40;;;;;;;;;;5022884;28;20056;-83
2021/03/01 05:28:41;;;;;;;19.40;10.77;;;;;;;;;;5014802;28;20354;-84
2021/03/01 05:31:27;;;;;;;17.83;10.10;;;;;;;;;;5030752;28;20103;-86
2021/03/01 05:34:12;;;;;;;14.75;8.88;;;;;;;;;;5026564;28;20050;-83
2021/03/01 05:36:58;;;;;;;20.58;9.93;;;;;;;;;;5023729;28;20146;-83
2021/03/01 05:39:43;;;;;;;17.83;9.73;;;;;;;;;;5023752;28;20492;-84
2021/03/01 05:42:30;;;;;;;17.60;10.10;;;;;;;;;;5009971;28;20393;-83
2021/03/01 05:45:16;;;;;;;20.55;10.35;;;;;;;;;;5034641;28;20383;-83
2021/03/01 05:48:01;;;;;;;21.52;11.65;;;;;;;;;;5024418;28;20021;-83
2021/03/01 05:50:47;;;;;;;19.27;11.77;;;;;;;;;;5028315;28;20053;-84
2021/03/01 05:53:36;;;;;;;16.45;9.43;;;;;;;;;;5025504;28;20619;-82
2021/03/01 05:56:22;;;;;;;21.38;10.85;;;;;;;;;;5025143;28;20045;-83
2021/03/01 05:59:08;;;;;;;20.20;10.15;;;;;;;;;;5026264;28;20029;-84
2021/03/01 06:01:54;;;;;;;17.27;8.70;;;;;;;;;;5023372;28;20364;-84
2021/03/01 06:04:39;;;;;;;19.92;9.27;;;;;;;;;;5026084;28;20041;-84
2021/03/01 06:07:25;;;;;;;18.42;9.32;;;;;;;;;;5026146;28;20048;-82
2021/03/01 06:10:10;;;;;;;19.23;9.02;;;;;;;;;;5022112;28;20033;-83
2021/03/01 06:12:55;;;;;;;19.15;10.48;;;;;;;;;;5029165;28;20108;-83
2021/03/01 06:15:40;;;;;;;19.80;10.35;;;;;;;;;;5029339;28;20022;-83
2021/03/01 06:18:26;;;;;;;17.55;9.57;;;;;;;;;;5025775;28;20025;-84
2021/03/01 06:21:14;;;;;;;18.70;9.95;;;;;;;;;;5025431;28;20033;-85
2021/03/01 06:23:59;;;;;;;18.58;9.98;;;;;;;;;;5023741;28;20088;-84
2021/03/01 06:26:44;;;;;;;19.27;11.00;;;;;;;;;;5026433;28;20136;-83
2021/03/01 06:29:29;;;;;;;20.15;10.50;;;;;;;;;;5023904;28;20468;-83
2021/03/01 06:32:17;;;;;;;16.48;10.43;;;;;;;;;;5029503;28;20423;-82
2021/03/01 06:35:03;;;;;;;18.92;9.77;;;;;;;;;;5030807;28;20049;-84
2021/03/01 06:38:08;;;;;;;17.15;10.70;;;;;;;;;;5025480;28;20021;-83
2021/03/01 06:41:12;;;;;;;17.35;9.30;;;;;;;;;;5026367;28;20053;-84
2021/03/01 06:43:58;;;;;;;18.90;10.60;;;;;;;;;;5036126;28;20022;-85
2021/03/01 06:46:52;;;;;;;22.90;10.55;;;;;;;;;;5029886;28;20021;-83
2021/03/01 06:49:40;;;;;;;23.83;10.30;;;;;;;;;;5024145;28;20480;-84
2021/03/01 06:52:37;;;;;;;18.25;9.35;;;;;;;;;;5022684;28;20096;-81
2021/03/01 06:55:23;;;;;;;19.38;10.55;;;;;;;;;;5014825;28;20101;-82
2021/03/01 06:58:15;;;;;;;20.95;10.57;;;;;;;;;;5021324;28;20028;-82
2021/03/01 07:01:03;;;;;;;18.17;10.52;;;;;;;;;;5021946;28;20048;-81
2021/03/01 07:03:49;;;;;;;18.50;10.15;;;;;;;;;;5010369;28;20033;-82
2021/03/01 07:06:38;;;;;;;18.23;10.50;;;;;;;;;;5022334;28;20053;-80
2021/03/01 07:09:24;;;;;;;17.65;10.63;;;;;;;;;;5023829;28;20026;-82
2021/03/01 07:12:10;;;;;;;19.23;9.85;;;;;;;;;;5023243;28;20021;-85
2021/03/01 07:14:55;;;;;;;19.10;11.15;;;;;;;;;;5025681;28;20032;-85
2021/03/01 07:17:42;;;;;;;25.05;11.57;;;;;;;;;;5026511;28;20025;-85
2021/03/01 07:20:27;;;;;;;19.52;10.82;;;;;;;;;;5025489;28;20025;-85
2021/03/01 07:23:13;;;;;;;21.67;11.93;;;;;;;;;;5024064;28;20025;-83
2021/03/01 07:25:58;;;;;;;34.67;21.13;;;;;;;;;;5022112;28;20460;-83
2021/03/01 07:28:49;;;;;;;34.88;20.20;;;;;;;;;;5025494;28;20028;-83
2021/03/01 07:31:35;;;;;;;24.52;12.20;;;;;;;;;;5020215;28;20033;-82
2021/03/01 07:34:20;;;;;;;18.05;11.10;;;;;;;;;;5027701;28;20021;-82
2021/03/01 07:37:06;;;;;;;19.17;11.13;;;;;;;;;;5025997;28;20108;-82
2021/03/01 07:39:51;;;;;;;29.30;13.38;;;;;;;;;;5029728;28;20068;-81
2021/03/01 07:42:38;;;;;;;23.05;10.48;;;;;;;;;;5027963;28;20086;-82
2021/03/01 07:45:23;;;;;;;22.52;10.77;;;;;;;;;;5025614;28;20026;-82
2021/03/01 07:48:13;;;;;;;19.65;11.75;;;;;;;;;;5026374;28;20468;-83
2021/03/01 07:50:58;;;;;;;19.98;12.63;;;;;;;;;;5025339;28;20033;-84
2021/03/01 07:53:43;;;;;;;25.58;10.98;;;;;;;;;;5028533;28;20035;-83
2021/03/01 07:56:38;;;;;;;22.00;11.60;;;;;;;;;;5029211;28;20029;-82
2021/03/01 07:59:28;;;;;;;51.38;31.77;;;;;;;;;;5031067;28;20109;-82
2021/03/01 08:02:16;;;;;;;28.85;17.38;;;;;;;;;;5018882;28;20118;-82
2021/03/01 08:05:19;;;;;;;23.08;12.30;;;;;;;;;;5024689;28;20427;-82
2021/03/01 08:08:04;;;;;;;20.30;12.43;;;;;;;;;;5028048;28;20021;-83
2021/03/01 08:10:49;;;;;;;20.58;12.23;;;;;;;;;;5021994;28;20385;-83
2021/03/01 08:13:35;;;;;;;22.70;12.05;;;;;;;;;;5012050;28;20025;-84
2021/03/01 08:16:22;;;;;;;19.17;11.48;;;;;;;;;;5031117;28;20151;-82
2021/03/01 08:19:08;;;;;;;22.13;11.77;;;;;;;;;;5023740;28;20083;-84
2021/03/01 08:22:04;;;;;;;21.88;13.88;;;;;;;;;;5033455;28;20285;-81
2021/03/01 08:24:50;;;;;;;19.17;12.18;;;;;;;;;;5023618;28;20037;-84
2021/03/01 08:27:38;;;;;;;24.15;13.55;;;;;;;;;;5029358;28;20096;-88
2021/03/01 08:30:24;;;;;;;17.67;11.27;;;;;;;;;;5035179;28;20113;-84
2021/03/01 08:33:10;;;;;;;20.40;12.07;;;;;;;;;;5031024;28;20404;-84
2021/03/01 08:36:01;;;;;;;41.10;25.85;;;;;;;;;;5029689;28;20341;-84
2021/03/01 08:38:53;;;;;;;22.98;12.77;;;;;;;;;;5025853;28;20055;-86
2021/03/01 08:41:39;;;;;;;19.85;11.65;;;;;;;;;;5020658;28;20040;-85
2021/03/01 08:44:25;;;;;;;23.15;12.68;;;;;;;;;;5035343;28;20022;-85
2021/03/01 08:47:10;;;;;;;18.05;11.90;;;;;;;;;;5038213;28;20191;-88
2021/03/01 08:50:02;;;;;;;22.30;12.57;;;;;;;;;;5033006;28;20093;-88
2021/03/01 08:52:49;;;;;;;23.17;12.50;;;;;;;;;;5030118;28;20103;-88
2021/03/01 08:55:35;;;;;;;22.05;12.02;;;;;;;;;;5035509;28;20060;-87
2021/03/01 08:58:20;;;;;;;19.08;12.43;;;;;;;;;;5034227;28;20033;-88
2021/03/01 09:01:06;;;;;;;21.80;12.95;;;;;;;;;;5031831;28;20091;-89
2021/03/01 09:03:52;;;;;;;24.30;12.82;;;;;;;;;;5029824;28;20052;-85
2021/03/01 09:06:37;;;;;;;24.38;13.52;;;;;;;;;;5028482;28;20040;-86
2021/03/01 09:09:22;;;;;;;23.17;14.13;;;;;;;;;;5018409;28;20052;-85
2021/03/01 09:12:15;;;;;;;28.20;13.63;;;;;;;;;;5030447;28;20028;-86
2021/03/01 09:15:01;;;;;;;23.83;14.27;;;;;;;;;;5030115;28;20472;-84
2021/03/01 09:17:50;;;;;;;23.05;14.93;;;;;;;;;;5029156;28;20029;-89
2021/03/01 09:20:43;;;;;;;35.80;18.57;;;;;;;;;;5027916;28;20041;-87
2021/03/01 09:23:31;;;;;;;30.08;15.50;;;;;;;;;;5029990;28;20550;-87
2021/03/01 09:26:20;;;;;;;26.35;13.38;;;;;;;;;;5026804;28;20021;-85
2021/03/01 09:29:17;;;;;;;24.45;12.82;;;;;;;;;;5030358;28;20029;-84
2021/03/01 09:32:03;;;;;;;24.52;14.52;;;;;;;;;;5026680;28;20363;-87
2021/03/01 09:34:48;;;;;;;24.38;13.98;;;;;;;;;;5027037;28;20030;-86
2021/03/01 09:37:34;;;;;;;26.20;14.02;;;;;;;;;;5031180;28;20377;-85
2021/03/01 09:40:21;;;;;;;23.08;13.18;;;;;;;;;;5019475;28;20176;-82
2021/03/01 09:43:07;;;;;;;25.55;13.95;;;;;;;;;;5010310;28;20026;-84
2021/03/01 09:45:53;;;;;;;18.67;12.27;;;;;;;;;;5027663;28;20113;-83
2021/03/01 09:48:43;;;;;;;21.90;14.10;;;;;;;;;;5027436;28;21475;-85
2021/03/01 09:51:29;;;;;;;21.70;13.70;;;;;;;;;;5020912;28;20439;-84
2021/03/01 09:54:15;;;;;;;25.60;13.07;;;;;;;;;;5027579;28;20043;-90
2021/03/01 09:57:04;;;;;;;21.40;12.88;;;;;;;;;;5016715;28;20489;-86
2021/03/01 09:59:50;;;;;;;24.92;11.82;;;;;;;;;;5030672;28;20475;-86
2021/03/01 10:02:35;;;;;;;27.77;16.10;;;;;;;;;;5025320;28;20058;-83
2021/03/01 10:05:20;;;;;;;23.05;20.60;;;;;;;;;;5029107;28;20048;-85
2021/03/01 10:08:06;;;;;;;28.02;25.75;;;;;;;;;;5023936;28;20486;-85
2021/03/01 10:10:54;;;;;;;28.88;26.27;;;;;;;;;;5022323;28;20049;-83
2021/03/01 10:13:39;;;;;;;32.08;28.98;;;;;;;;;;5025235;28;20508;-86
2021/03/01 10:16:31;;;;;;;35.13;32.13;;;;;;;;;;5027585;28;20093;-87
2021/03/01 10:19:17;;;;;;;57.80;54.05;;;;;;;;;;5021102;28;20036;-87
2021/03/01 10:22:03;;;;;;;45.80;42.60;;;;;;;;;;5027052;28;20033;-86
2021/03/01 10:24:49;;;;;;;35.78;32.85;;;;;;;;;;5021611;28;20104;-85
2021/03/01 10:27:37;;;;;;;1999.90;999.90;;;;;;;;;;5027742;28;20041;-86
2021/03/01 10:30:22;;;;;;;1999.90;999.90;;;;;;;;;;5024280;28;20043;-86
2021/03/01 10:33:07;;;;;;;1999.90;999.90;;;;;;;;;;5025068;28;20089;-85
2021/03/01 10:36:09;;;;;;;1999.90;999.90;;;;;;;;;;5026584;28;20167;-87
2021/03/01 10:38:55;;;;;;;1999.90;999.90;;;;;;;;;;5026309;28;20041;-88
2021/03/01 10:41:51;;;;;;;1999.90;999.90;;;;;;;;;;5028571;28;20051;-88
2021/03/01 10:44:36;;;;;;;1999.90;999.90;;;;;;;;;;5024023;28;20045;-86
2021/03/01 10:47:23;;;;;;;1999.90;999.90;;;;;;;;;;5026543;28;20041;-87
2021/03/01 10:50:11;;;;;;;1999.90;999.90;;;;;;;;;;5012605;28;20018;-86
2021/03/01 10:52:56;;;;;;;1999.90;999.90;;;;;;;;;;5018428;28;20077;-88
2021/03/01 10:55:41;;;;;;;1999.90;999.90;;;;;;;;;;5027567;28;20056;-87
2021/03/01 10:58:27;;;;;;;15.82;10.63;;;;;;;;;;5030920;28;20048;-90
2021/03/01 11:01:12;;;;;;;12.55;9.00;;;;;;;;;;5033656;28;20057;-90
2021/03/01 11:03:57;;;;;;;15.75;11.13;;;;;;;;;;5029093;28;20464;-85
2021/03/01 11:06:44;;;;;;;14.88;10.70;;;;;;;;;;5020955;28;20477;-87
2021/03/01 11:09:29;;;;;;;13.82;9.27;;;;;;;;;;5021839;28;20025;-84
2021/03/01 11:12:15;;;;;;;16.58;10.30;;;;;;;;;;5028184;28;20026;-88
2021/03/01 11:15:00;;;;;;;13.50;9.05;;;;;;;;;;5022781;28;20025;-82
2021/03/01 11:17:45;;;;;;;15.63;9.75;;;;;;;;;;5023501;28;20041;-84
2021/03/01 11:20:30;;;;;;;14.00;8.77;;;;;;;;;;5023746;28;20025;-86
2021/03/01 11:23:16;;;;;;;13.10;9.10;;;;;;;;;;5030488;28;20025;-85
2021/03/01 11:26:01;;;;;;;15.27;9.25;;;;;;;;;;5020706;28;20036;-84
2021/03/01 11:28:46;;;;;;;15.05;8.77;;;;;;;;;;5023642;28;20059;-85
2021/03/01 11:31:33;;;;;;;12.90;8.57;;;;;;;;;;5024311;28;20030;-83
2021/03/01 11:34:18;;;;;;;17.25;8.27;;;;;;;;;;5027288;28;20482;-84
2021/03/01 11:37:04;;;;;;;13.20;8.38;;;;;;;;;;5020124;28;20029;-84
2021/03/01 11:39:49;;;;;;;14.55;9.13;;;;;;;;;;5019914;28;20058;-84
2021/03/01 11:42:34;;;;;;;12.68;8.70;;;;;;;;;;5026800;28;20033;-85
2021/03/01 11:45:19;;;;;;;17.70;8.68;;;;;;;;;;5025410;28;20091;-83
2021/03/01 11:48:05;;;;;;;14.23;9.07;;;;;;;;;;5023708;28;20025;-84
2021/03/01 11:50:51;;;;;;;17.33;7.72;;;;;;;;;;5026720;28;20025;-85
2021/03/01 11:53:36;;;;;;;12.20;8.30;;;;;;;;;;5024861;28;20684;-85
2021/03/01 11:56:22;;;;;;;14.73;7.88;;;;;;;;;;5019637;28;20040;-86
2021/03/01 11:59:07;;;;;;;11.45;7.78;;;;;;;;;;5023474;28;20417;-85
2021/03/01 12:01:52;;;;;;;13.02;7.55;;;;;;;;;;5023692;28;20053;-84
2021/03/01 12:04:38;;;;;;;11.98;6.30;;;;;;;;;;5023034;28;20129;-86
2021/03/01 12:07:23;;;;;;;11.63;5.97;;;;;;;;;;5019280;28;20026;-83
2021/03/01 12:10:08;;;;;;;8.98;6.10;;;;;;;;;;5023890;28;20030;-82
2021/03/01 12:12:54;;;;;;;9.23;6.07;;;;;;;;;;5024105;28;20166;-85
2021/03/01 12:15:39;;;;;;;11.82;6.57;;;;;;;;;;5026265;28;20116;-86
2021/03/01 12:18:24;;;;;;;5.65;4.18;;;;;;;;;;5017013;28;20029;-86
2021/03/01 12:21:09;;;;;;;9.63;4.65;;;;;;;;;;5030763;28;20036;-85
2021/03/01 12:23:54;;;;;;;8.85;4.20;;;;;;;;;;5027304;28;20428;-85
2021/03/01 12:26:40;;;;;;;9.23;4.20;;;;;;;;;;5031094;28;20597;-86
2021/03/01 12:29:25;;;;;;;5.57;3.70;;;;;;;;;;5025244;28;20021;-88
2021/03/01 12:32:10;;;;;;;5.85;3.42;;;;;;;;;;5020641;28;20050;-86
2021/03/01 12:34:56;;;;;;;8.63;4.63;;;;;;;;;;5026792;28;20029;-85
2021/03/01 12:37:41;;;;;;;7.30;4.30;;;;;;;;;;5014209;28;20478;-86
2021/03/01 12:40:27;;;;;;;8.55;3.88;;;;;;;;;;5024737;28;20053;-82
2021/03/01 12:43:12;;;;;;;5.55;3.10;;;;;;;;;;5021884;28;20040;-82
2021/03/01 12:45:57;;;;;;;6.93;3.95;;;;;;;;;;5019632;28;20412;-81
2021/03/01 12:48:42;;;;;;;5.38;3.58;;;;;;;;;;5021803;28;20403;-80
2021/03/01 12:51:28;;;;;;;5.68;3.70;;;;;;;;;;5024798;28;20064;-80
2021/03/01 12:54:13;;;;;;;7.95;4.20;;;;;;;;;;5018712;28;20456;-80
2021/03/01 12:56:59;;;;;;;5.40;3.80;;;;;;;;;;5024225;28;20032;-85
2021/03/01 12:59:44;;;;;;;6.30;3.83;;;;;;;;;;5023780;28;20033;-85
2021/03/01 13:02:32;;;;;;;5.63;3.13;;;;;;;;;;5031075;28;20095;-89
2021/03/01 13:05:17;;;;;;;6.38;3.42;;;;;;;;;;5030172;28;20037;-87
2021/03/01 13:08:06;;;;;;;6.57;3.75;;;;;;;;;;5015172;28;20018;-91
2021/03/01 13:10:52;;;;;;;6.13;3.63;;;;;;;;;;5025921;28;20056;-88
2021/03/01 13:13:38;;;;;;;6.35;4.35;;;;;;;;;;5030589;28;20413;-86
2021/03/01 13:16:23;;;;;;;5.03;3.45;;;;;;;;;;5036646;28;20053;-87
2021/03/01 13:19:08;;;;;;;6.13;3.80;;;;;;;;;;5043975;28;20482;-90
2021/03/01 13:21:54;;;;;;;7.32;3.95;;;;;;;;;;5028649;28;20057;-86
2021/03/01 13:24:39;;;;;;;5.80;3.65;;;;;;;;;;5015883;28;20581;-87
2021/03/01 13:27:24;;;;;;;6.00;3.85;;;;;;;;;;5026336;28;20511;-85
2021/03/01 13:30:10;;;;;;;7.72;3.50;;;;;;;;;;5024055;28;21404;-82
2021/03/01 13:32:55;;;;;;;7.70;3.80;;;;;;;;;;5024506;28;20029;-83
2021/03/01 13:35:40;;;;;;;4.70;3.35;;;;;;;;;;5025154;28;20555;-83
2021/03/01 13:38:31;;;;;;;5.90;3.83;;;;;;;;;;5021471;28;20136;-84
2021/03/01 13:41:17;;;;;;;6.63;4.00;;;;;;;;;;5015519;28;20081;-87
2021/03/01 13:44:02;;;;;;;7.50;3.92;;;;;;;;;;5026060;28;20079;-89
2021/03/01 13:46:47;;;;;;;10.48;4.72;;;;;;;;;;5024521;28;20108;-85
2021/03/01 13:49:33;;;;;;;5.63;3.75;;;;;;;;;;5026188;28;20049;-87
2021/03/01 13:52:18;;;;;;;5.93;3.97;;;;;;;;;;5023387;28;20029;-86
2021/03/01 13:55:04;;;;;;;6.57;4.30;;;;;;;;;;5026673;28;20037;-86
2021/03/01 13:57:49;;;;;;;8.10;4.45;;;;;;;;;;5023225;28;20387;-85
2021/03/01 14:00:35;;;;;;;5.68;4.00;;;;;;;;;;5026124;28;20540;-86
2021/03/01 14:03:20;;;;;;;13.95;10.18;;;;;;;;;;5026283;28;20430;-85
2021/03/01 14:06:05;;;;;;;6.93;4.10;;;;;;;;;;5009082;28;20391;-84
2021/03/01 14:08:51;;;;;;;7.05;4.00;;;;;;;;;;5026513;28;20076;-83
2021/03/01 14:11:36;;;;;;;6.40;4.00;;;;;;;;;;5018691;28;21424;-83
2021/03/01 14:14:21;;;;;;;7.68;4.28;;;;;;;;;;5031208;28;20029;-83
2021/03/01 14:17:07;;;;;;;8.70;4.35;;;;;;;;;;5022468;28;20016;-82
2021/03/01 14:19:54;;;;;;;6.20;3.90;;;;;;;;;;5027147;28;20045;-85
2021/03/01 14:22:40;;;;;;;8.20;4.25;;;;;;;;;;5030179;28;20053;-87
2021/03/01 14:25:25;;;;;;;6.82;4.43;;;;;;;;;;5005105;28;20025;-86
2021/03/01 14:28:11;;;;;;;7.85;4.40;;;;;;;;;;5027196;28;20028;-87
2021/03/01 14:30:56;;;;;;;6.53;3.90;;;;;;;;;;5026782;28;20100;-85
2021/03/01 14:33:41;;;;;;;15.77;4.70;;;;;;;;;;5024654;28;20494;-84
2021/03/01 14:40:12;;;;;;;8.10;5.05;;;;;;;;;;5019173;28;20088;-86
2021/03/01 14:46:30;;;;;;;7.30;4.50;;;;;;;;;;5010548;28;20136;-85
2021/03/01 14:49:28;;;;;;;;;;;;;;;;;;;;;
2021/03/01 14:52:55;;;;;;;9.50;5.03;;;;;;;;;;4955048;28;20043;-83
2021/03/01 14:55:56;;;;;;;8.75;4.45;;;;;;;;;;5016955;28;20454;-83
2021/03/01 14:58:44;;;;;;;7.55;4.95;;;;;;;;;;5023046;28;20408;-85
2021/03/01 15:01:30;;;;;;;10.88;6.43;;;;;;;;;;5022563;28;20021;-86
2021/03/01 15:04:16;;;;;;;7.93;4.55;;;;;;;;;;5013668;28;20102;-86
2021/03/01 15:07:01;;;;;;;9.18;4.70;;;;;;;;;;5019086;28;20024;-85
2021/03/01 15:09:55;;;;;;;9.85;5.30;;;;;;;;;;5017905;28;20033;-85
2021/03/01 15:12:41;;;;;;;7.70;4.68;;;;;;;;;;5025316;28;20045;-83
2021/03/01 15:15:28;;;;;;;7.90;4.70;;;;;;;;;;5023583;28;20041;-83
2021/03/01 15:18:19;;;;;;;10.05;4.53;;;;;;;;;;5024730;28;20064;-85
2021/03/01 15:21:06;;;;;;;7.35;5.00;;;;;;;;;;5025814;28;20036;-84
2021/03/01 15:23:51;;;;;;;11.32;5.20;;;;;;;;;;5022151;28;20531;-86
2021/03/01 15:26:37;;;;;;;7.45;4.95;;;;;;;;;;5022807;28;20041;-85
2021/03/01 15:29:24;;;;;;;9.30;4.47;;;;;;;;;;5020965;28;20112;-83
2021/03/01 15:32:09;;;;;;;9.43;5.28;;;;;;;;;;5019641;28;20029;-86
2021/03/01 15:34:54;;;;;;;7.47;4.45;;;;;;;;;;5012189;28;20511;-84
2021/03/01 15:37:39;;;;;;;7.90;3.83;;;;;;;;;;5022426;28;20068;-86
2021/03/01 15:40:25;;;;;;;8.23;4.88;;;;;;;;;;5019385;28;20052;-85
2021/03/01 15:43:10;;;;;;;8.07;4.13;;;;;;;;;;5010667;28;20032;-84
2021/03/01 15:45:56;;;;;;;6.80;4.60;;;;;;;;;;5021496;28;20022;-85
2021/03/01 15:48:41;;;;;;;6.18;3.90;;;;;;;;;;5023535;28;20384;-82
2021/03/01 15:51:26;;;;;;;6.63;3.95;;;;;;;;;;5018059;28;20029;-84
2021/03/01 15:54:11;;;;;;;10.13;4.32;;;;;;;;;;5030381;28;20031;-82
2021/03/01 15:56:56;;;;;;;9.45;4.57;;;;;;;;;;5023479;28;20021;-83
2021/03/01 15:59:42;;;;;;;8.68;3.97;;;;;;;;;;5025028;28;20146;-86
2021/03/01 16:02:28;;;;;;;8.70;5.22;;;;;;;;;;5023238;28;20060;-85
2021/03/01 16:05:14;;;;;;;6.60;4.30;;;;;;;;;;5026888;28;20664;-85
2021/03/01 16:07:59;;;;;;;9.75;5.32;;;;;;;;;;5022905;28;20464;-84
2021/03/01 16:10:44;;;;;;;12.43;6.13;;;;;;;;;;5031758;28;20025;-83
2021/03/01 16:13:30;;;;;;;9.95;5.13;;;;;;;;;;5027163;28;20022;-83
2021/03/01 16:16:15;;;;;;;7.03;4.13;;;;;;;;;;5024168;28;20109;-83
2021/03/01 16:19:00;;;;;;;8.40;3.67;;;;;;;;;;5027219;28;20435;-83
2021/03/01 16:21:46;;;;;;;7.38;4.05;;;;;;;;;;5021638;28;20674;-83
2021/03/01 16:24:31;;;;;;;8.70;4.70;;;;;;;;;;5021349;28;20084;-84
2021/03/01 16:27:16;;;;;;;7.40;4.28;;;;;;;;;;5004232;28;20071;-85